Delhi, Michigan
Current Conditions -  °F | °C
As of 7:53 AM on Sunday 21 Dec 2014 (Local Time) from KARB Reporting Station
Haze Haze  
Wind Chill: 26°   Ceiling: 6000
Heat Index: 26°   Visibility: 5mi
Dew Point: 24°   Wind: 0mph
Humidity: 92%   Direction: NA
Pressure: 30.3"   Gusts: NA
Location:  42.2601°N, 83.8448°W
Report Text: KARB 211253Z 00000KT 5SM BR FEW032 OVC060 M03/M04 A3030 RMK AO2 SLP272 T10331044
Loading
Personal Weather Stations






























Interactive Weather Map New forecast layout! Learn more

10-Day Weather Forecast

Advertisements
Track Severe Weather on mobile